Time;durP1;ratioP1;P1;durP2;ratioP2;P2;SDS_P1;SDS_P2;PMS_P1;PMS_P2;Temp;Humidity;BMP_temperature;BMP_pressure;BME280_temperature;BME280_humidity;BME280_pressure;Samples;Min_cycle;Max_cycle;Signal;HPM_P1;HPM_P2
2022/09/09 00:00:47;;;;;;;;;;;;;;;;;;5054068;28;19925;-78
2022/09/09 00:03:17;;;;;;;;;;;;;;;;;;5055318;28;19984;-78
2022/09/09 00:05:49;;;;;;;;;;;;;;;;;;5056782;28;19968;-77
2022/09/09 00:08:20;;;;;;;;;;;;;;;;;;5056778;28;20350;-78
2022/09/09 00:10:49;;;;;;;;;;;;;;;;;;5054615;28;20063;-78
2022/09/09 00:13:19;;;;;;;;;;;;;;;;;;5053408;28;19924;-78
2022/09/09 00:15:50;;;;;;;;;;;;;;;;;;5053781;28;19924;-78
2022/09/09 00:18:21;;;;;;;;;;;;;;;;;;5053357;28;19931;-77
2022/09/09 00:20:51;;;;;;;;;;;;;;;;;;5053260;28;19971;-78
2022/09/09 00:23:25;;;;;;;;;;;;;;;;;;5053799;28;19931;-78
2022/09/09 00:25:55;;;;;;;;;;;;;;;;;;5054099;28;20335;-77
2022/09/09 00:28:24;;;;;;;;;;;;;;;;;;5055264;28;19925;-78
2022/09/09 00:30:50;;;;;;;;;;;;;;;;;;5055906;28;19972;-78
2022/09/09 00:33:18;;;;;;;;;;;;;;;;;;5055491;28;19967;-78
2022/09/09 00:35:46;;;;;;;;;;;;;;;;;;5055824;28;20001;-78
2022/09/09 00:38:14;;;;;;;;;;;;;;;;;;5055247;28;19964;-79
2022/09/09 00:40:46;;;;;;;;;;;;;;;;;;5054566;28;19925;-78
2022/09/09 00:43:22;;;;;;;;;;;;;;;;;;5054544;28;19975;-78
2022/09/09 00:45:56;;;;;;;;;;;;;;;;;;5055140;28;20378;-78
2022/09/09 00:48:29;;;;;;;;;;;;;;;;;;5056839;28;19925;-78
2022/09/09 00:50:59;;;;;;;;;;;;;;;;;;5054724;28;20269;-78
2022/09/09 00:53:32;;;;;;;;;;;;;;;;;;5056581;28;19931;-77
2022/09/09 00:56:05;;;;;;;;;;;;;;;;;;5058329;28;19935;-80
2022/09/09 00:58:32;;;;;;;;;;;;;;;;;;5057896;28;19955;-79
2022/09/09 01:01:03;;;;;;;;;;;;;;;;;;5058480;28;19975;-78
2022/09/09 01:03:34;;;;;;;;;;;;;;;;;;5056925;28;19925;-78
2022/09/09 01:06:03;;;;;;;;;;;;;;;;;;5059578;28;20300;-79
2022/09/09 01:08:38;;;;;;;;;;;;;;;;;;5060001;28;20334;-79
2022/09/09 01:11:10;;;;;;;;;;;;;;;;;;5060124;28;19928;-79
2022/09/09 01:13:37;;;;;;;;;;;;;;;;;;5054107;28;19960;-78
2022/09/09 01:16:05;;;;;;;;;;;;;;;;;;5054908;28;20316;-78
2022/09/09 01:18:35;;;;;;;;;;;;;;;;;;5057124;28;20248;-79
2022/09/09 01:21:05;;;;;;;;;;;;;;;;;;5056171;28;19924;-78
2022/09/09 01:23:43;;;;;;;;;;;;;;;;;;5055660;28;20096;-79
2022/09/09 01:26:16;;;;;;;;;;;;;;;;;;5059892;28;19956;-79
2022/09/09 01:28:45;;;;;;;;;;;;;;;;;;5052194;28;19964;-79
2022/09/09 01:31:12;;;;;;;;;;;;;;;;;;5052596;28;20012;-78
2022/09/09 01:33:39;;;;;;;;;;;;;;;;;;5055717;28;19981;-78
2022/09/09 01:36:08;;;;;;;;;;;;;;;;;;5056785;28;20058;-78
2022/09/09 01:38:35;;;;;;;;;;;;;;;;;;5059218;28;19929;-78
2022/09/09 01:41:02;;;;;;;;;;;;;;;;;;5058929;28;19971;-78
2022/09/09 01:43:30;;;;;;;;;;;;;;;;;;5055249;28;19955;-78
2022/09/09 01:45:57;;;;;;;;;;;;;;;;;;5056623;28;19925;-79
2022/09/09 01:48:24;;;;;;;;;;;;;;;;;;5053876;28;19964;-78
2022/09/09 01:50:50;;;;;;;;;;;;;;;;;;5055818;28;19996;-78
2022/09/09 01:53:18;;;;;;;;;;;;;;;;;;5056038;28;19971;-80
2022/09/09 01:55:46;;;;;;;;;;;;;;;;;;5053694;28;20365;-77
2022/09/09 01:58:20;;;;;;;;;;;;;;;;;;5052860;28;20010;-78
2022/09/09 02:00:52;;;;;;;;;;;;;;;;;;5056818;28;20002;-78
2022/09/09 02:03:21;;;;;;;;;;;;;;;;;;5054299;28;20011;-78
2022/09/09 02:05:57;;;;;;;;;;;;;;;;;;5054433;28;19978;-78
2022/09/09 02:08:26;;;;;;;;;;;;;;;;;;5056256;28;19925;-78
2022/09/09 02:10:55;;;;;;;;;;;;;;;;;;5049191;28;19975;-79
2022/09/09 02:13:22;;;;;;;;;;;;;;;;;;5064101;28;19977;-78
2022/09/09 02:15:53;;;;;;;;;;;;;;;;;;5075858;28;20238;-78
2022/09/09 02:18:22;;;;;;;;;;;;;;;;;;5076265;28;19925;-78
2022/09/09 02:20:48;;;;;;;;;;;;;;;;;;5076309;28;19931;-77
2022/09/09 02:23:15;;;;;;;;;;;;;;;;;;5072991;28;19925;-78
2022/09/09 02:25:43;;;;;;;;;;;;;;;;;;5072170;28;19960;-78
2022/09/09 02:28:10;;;;;;;;;;;;;;;;;;5063654;28;20596;-77
2022/09/09 02:30:38;;;;;;;;;;;;;;;;;;5060717;28;19925;-79
2022/09/09 02:33:08;;;;;;;;;;;;;;;;;;5060186;28;19992;-79
2022/09/09 02:35:37;;;;;;;;;;;;;;;;;;5058519;28;19924;-79
2022/09/09 02:38:06;;;;;;;;;;;;;;;;;;5059145;28;19925;-78
2022/09/09 02:40:32;;;;;;;;;;;;;;;;;;5062111;28;19931;-78
2022/09/09 02:42:59;;;;;;;;;;;;;;;;;;5061156;28;19979;-78
2022/09/09 02:45:28;;;;;;;;;;;;;;;;;;5059272;28;19929;-78
2022/09/09 02:48:00;;;;;;;;;;;;;;;;;;5057556;28;19924;-78
2022/09/09 02:50:33;;;;;;;;;;;;;;;;;;5056324;28;20020;-80
2022/09/09 02:53:05;;;;;;;;;;;;;;;;;;5057071;28;19924;-78
2022/09/09 02:55:38;;;;;;;;;;;;;;;;;;5056689;28;19924;-78
2022/09/09 02:58:05;;;;;;;;;;;;;;;;;;5058526;28;19925;-78
2022/09/09 03:00:32;;;;;;;;;;;;;;;;;;5059412;28;19939;-79
2022/09/09 03:02:59;;;;;;;;;;;;;;;;;;5065408;28;19967;-78
2022/09/09 03:05:26;;;;;;;;;;;;;;;;;;5064344;28;19940;-78
2022/09/09 03:07:54;;;;;;;;;;;;;;;;;;5058652;28;19925;-79
2022/09/09 03:10:20;;;;;;;;;;;;;;;;;;5061112;28;19931;-79
2022/09/09 03:12:46;;;;;;;;;;;;;;;;;;5061972;28;19984;-79
2022/09/09 03:15:14;;;;;;;;;;;;;;;;;;5058833;28;19928;-77
2022/09/09 03:17:41;;;;;;;;;;;;;;;;;;5057426;28;19932;-78
2022/09/09 03:20:08;;;;;;;;;;;;;;;;;;5058166;28;19931;-78
2022/09/09 03:22:34;;;;;;;;;;;;;;;;;;5058746;28;19924;-78
2022/09/09 03:25:02;;;;;;;;;;;;;;;;;;5058294;28;20019;-78
2022/09/09 03:27:29;;;;;;;;;;;;;;;;;;5074539;28;19932;-79
2022/09/09 03:29:55;;;;;;;;;;;;;;;;;;5074537;28;19935;-79
2022/09/09 03:32:25;;;;;;;;;;;;;;;;;;5067825;28;19924;-78
2022/09/09 03:34:52;;;;;;;;;;;;;;;;;;5051456;28;20043;-78
2022/09/09 03:37:18;;;;;;;;;;;;;;;;;;5054737;28;19953;-80
2022/09/09 03:39:45;;;;;;;;;;;;;;;;;;5055715;28;19936;-78
2022/09/09 03:42:18;;;;;;;;;;;;;;;;;;5055891;28;19953;-79
2022/09/09 03:44:46;;;;;;;;;;;;;;;;;;5053538;28;19925;-78
2022/09/09 03:47:12;;;;;;;;;;;;;;;;;;5052866;28;19936;-79
2022/09/09 03:49:39;;;;;;;;;;;;;;;;;;5056281;28;20375;-78
2022/09/09 03:52:05;;;;;;;;;;;;;;;;;;5057544;28;19925;-78
2022/09/09 03:54:32;;;;;;;;;;;;;;;;;;5058698;28;20400;-78
2022/09/09 03:56:58;;;;;;;;;;;;;;;;;;5059776;28;19972;-78
2022/09/09 03:59:26;;;;;;;;;;;;;;;;;;5054965;28;19974;-79
2022/09/09 04:01:52;;;;;;;;;;;;;;;;;;5055467;28;19931;-79
2022/09/09 04:04:19;;;;;;;;;;;;;;;;;;5055091;28;19925;-79
2022/09/09 04:06:48;;;;;;;;;;;;;;;;;;5055469;28;20462;-79
2022/09/09 04:09:14;;;;;;;;;;;;;;;;;;5055184;28;19925;-79
2022/09/09 04:11:40;;;;;;;;;;;;;;;;;;5056184;28;19935;-79
2022/09/09 04:14:07;;;;;;;;;;;;;;;;;;5057449;28;20035;-78
2022/09/09 04:16:37;;;;;;;;;;;;;;;;;;5056089;28;19931;-78
2022/09/09 04:19:04;;;;;;;;;;;;;;;;;;5057898;28;19931;-79
2022/09/09 04:21:30;;;;;;;;;;;;;;;;;;5059847;28;20030;-78
2022/09/09 04:23:57;;;;;;;;;;;;;;;;;;5059228;28;19935;-79
2022/09/09 04:26:23;;;;;;;;;;;;;;;;;;5066676;28;19924;-80
2022/09/09 04:28:50;;;;;;;;;;;;;;;;;;5061337;28;19924;-80
2022/09/09 04:31:18;;;;;;;;;;;;;;;;;;5061527;28;19932;-78
2022/09/09 04:33:46;;;;;;;;;;;;;;;;;;5058720;28;19982;-79
2022/09/09 04:36:12;;;;;;;;;;;;;;;;;;5058997;28;20379;-78
2022/09/09 04:38:39;;;;;;;;;;;;;;;;;;5058778;28;20023;-79
2022/09/09 04:41:05;;;;;;;;;;;;;;;;;;5039517;28;19928;-80
2022/09/09 04:43:32;;;;;;;;;;;;;;;;;;5038726;28;20020;-78
2022/09/09 04:45:59;;;;;;;;;;;;;;;;;;5058639;28;20018;-79
2022/09/09 04:48:25;;;;;;;;;;;;;;;;;;5058470;28;19925;-79
2022/09/09 04:50:57;;;;;;;;;;;;;;;;;;5057408;28;20011;-78
2022/09/09 04:53:25;;;;;;;;;;;;;;;;;;5058445;28;19994;-78
2022/09/09 04:55:51;;;;;;;;;;;;;;;;;;5057630;28;19925;-78
2022/09/09 04:58:18;;;;;;;;;;;;;;;;;;5055533;28;19974;-79
2022/09/09 05:00:44;;;;;;;;;;;;;;;;;;5056760;28;20376;-77
2022/09/09 05:03:12;;;;;;;;;;;;;;;;;;5055456;28;20016;-78
2022/09/09 05:05:38;;;;;;;;;;;;;;;;;;5055545;28;19948;-78
2022/09/09 05:08:08;;;;;;;;;;;;;;;;;;5055159;28;20060;-77
2022/09/09 05:10:35;;;;;;;;;;;;;;;;;;5055718;28;19948;-77
2022/09/09 05:13:02;;;;;;;;;;;;;;;;;;5056679;28;19925;-79
2022/09/09 05:15:28;;;;;;;;;;;;;;;;;;5055986;28;20015;-78
2022/09/09 05:17:57;;;;;;;;;;;;;;;;;;5055841;28;19975;-78
2022/09/09 05:20:24;;;;;;;;;;;;;;;;;;5055008;28;20411;-79
2022/09/09 05:22:53;;;;;;;;;;;;;;;;;;5056434;28;19925;-79
2022/09/09 05:25:22;;;;;;;;;;;;;;;;;;5056077;28;19924;-77
2022/09/09 05:27:49;;;;;;;;;;;;;;;;;;5056132;28;20016;-78
2022/09/09 05:30:15;;;;;;;;;;;;;;;;;;5056384;28;19925;-78
2022/09/09 05:32:43;;;;;;;;;;;;;;;;;;5056512;28;20174;-78
2022/09/09 05:35:09;;;;;;;;;;;;;;;;;;5057838;28;19925;-79
2022/09/09 05:37:36;;;;;;;;;;;;;;;;;;5058171;28;19974;-79
2022/09/09 05:40:02;;;;;;;;;;;;;;;;;;5057438;28;20387;-78
2022/09/09 05:42:32;;;;;;;;;;;;;;;;;;5057070;28;20352;-79
2022/09/09 05:44:58;;;;;;;;;;;;;;;;;;5057071;28;19924;-79
2022/09/09 05:47:27;;;;;;;;;;;;;;;;;;5057240;28;19925;-79
2022/09/09 05:49:54;;;;;;;;;;;;;;;;;;5057856;28;19978;-79
2022/09/09 05:52:20;;;;;;;;;;;;;;;;;;5065160;28;19955;-77
2022/09/09 05:54:47;;;;;;;;;;;;;;;;;;5070275;28;19925;-78
2022/09/09 05:57:13;;;;;;;;;;;;;;;;;;5069554;28;19928;-79
2022/09/09 05:59:41;;;;;;;;;;;;;;;;;;5063436;28;20012;-79
2022/09/09 06:02:08;;;;;;;;;;;;;;;;;;5063898;28;19929;-77
2022/09/09 06:04:35;;;;;;;;;;;;;;;;;;5066099;28;20011;-77
2022/09/09 06:07:01;;;;;;;;;;;;;;;;;;5067529;28;20003;-77
2022/09/09 06:09:30;;;;;;;;;;;;;;;;;;5065504;28;19991;-79
2022/09/09 06:11:57;;;;;;;;;;;;;;;;;;5062409;28;19924;-78
2022/09/09 06:14:25;;;;;;;;;;;;;;;;;;5062264;28;19978;-78
2022/09/09 06:16:53;;;;;;;;;;;;;;;;;;5063054;28;19929;-79
2022/09/09 06:19:20;;;;;;;;;;;;;;;;;;5064940;28;19925;-79
2022/09/09 06:21:47;;;;;;;;;;;;;;;;;;5061368;28;19925;-79
2022/09/09 06:24:17;;;;;;;;;;;;;;;;;;5059890;28;20483;-78
2022/09/09 06:26:43;;;;;;;;;;;;;;;;;;5059809;28;19924;-78
2022/09/09 06:29:10;;;;;;;;;;;;;;;;;;5059330;28;19924;-78
2022/09/09 06:31:37;;;;;;;;;;;;;;;;;;5058548;28;19980;-78
2022/09/09 06:34:07;;;;;;;;;;;;;;;;;;5072268;23;19925;-61
2022/09/09 06:36:34;;;;;;;;;;;;;;;;;;5035311;28;20023;-63
2022/09/09 06:39:01;;;;;;;;;;;;;;;;;;5020256;28;20440;-63
2022/09/09 06:41:28;;;;;;;;;;;;;;;;;;5015615;28;20290;-63
2022/09/09 06:43:56;;;;;;;;;;;;;;;;;;5015088;28;20011;-63
2022/09/09 06:46:27;;;;;;;;;;;;;;;;;;5015573;28;19948;-64
2022/09/09 06:48:55;;;;;;;;;;;;;;;;;;5016338;28;20437;-64
2022/09/09 06:51:23;;;;;;;;;;;;;;;;;;5015790;28;20020;-64
2022/09/09 06:53:51;;;;;;;;;;;;;;;;;;5014883;28;19933;-63
2022/09/09 06:56:20;;;;;;;;;;;;;;;;;;5015050;28;19972;-63
2022/09/09 06:58:48;;;;;;;;;;;;;;;;;;5015308;28;19933;-64
2022/09/09 07:01:16;;;;;;;;;;;;;;;;;;5018238;28;20297;-64
2022/09/09 07:03:43;;;;;;;;;;;;;;;;;;5034775;28;19930;-63
2022/09/09 07:06:14;;;;;;;;;;;;;;;;;;5034833;28;20302;-64
2022/09/09 07:08:42;;;;;;;;;;;;;;;;;;5016250;28;19947;-67
2022/09/09 07:11:09;;;;;;;;;;;;;;;;;;5011960;28;19972;-65
2022/09/09 07:13:36;;;;;;;;;;;;;;;;;;5012892;28;20317;-63
2022/09/09 07:16:04;;;;;;;;;;;;;;;;;;5013051;28;19940;-65
2022/09/09 07:18:31;;;;;;;;;;;;;;;;;;5013059;28;19932;-64
2022/09/09 07:20:57;;;;;;;;;;;;;;;;;;5013002;28;19980;-64
2022/09/09 07:23:24;;;;;;;;;;;;;;;;;;5013113;28;19929;-64
2022/09/09 07:25:52;;;;;;;;;;;;;;;;;;5013058;28;20398;-64
2022/09/09 07:28:19;;;;;;;;;;;;;;;;;;5013026;28;19926;-64
2022/09/09 07:30:53;;;;;;;;;;;;;;;;;;5012878;28;19956;-63
2022/09/09 07:33:20;;;;;;;;;;;;;;;;;;5013154;28;19936;-63
2022/09/09 07:35:47;;;;;;;;;;;;;;;;;;5012805;28;19925;-65
2022/09/09 07:38:15;;;;;;;;;;;;;;;;;;5012786;28;20028;-64
2022/09/09 07:40:44;;;;;;;;;;;;;;;;;;5011875;28;19989;-65
2022/09/09 07:43:13;;;;;;;;;;;;;;;;;;5030475;28;19928;-64
2022/09/09 07:45:40;;;;;;;;;;;;;;;;;;5031928;28;19971;-63
2022/09/09 07:48:07;;;;;;;;;;;;;;;;;;5029690;28;19933;-63
2022/09/09 07:50:33;;;;;;;;;;;;;;;;;;5012622;28;19929;-67
2022/09/09 07:53:00;;;;;;;;;;;;;;;;;;5011815;28;19931;-64
2022/09/09 07:55:26;;;;;;;;;;;;;;;;;;5012953;28;19937;-63
2022/09/09 07:57:53;;;;;;;;;;;;;;;;;;5012374;28;20020;-65
2022/09/09 08:00:22;;;;;;;;;;;;;;;;;;5012836;28;20383;-64
2022/09/09 08:02:48;;;;;;;;;;;;;;;;;;5027672;28;19931;-64
2022/09/09 08:05:16;;;;;;;;;;;;;;;;;;5032358;28;19925;-64
2022/09/09 08:07:44;;;;;;;;;;;;;;;;;;5031872;28;19929;-65
2022/09/09 08:10:10;;;;;;;;;;;;;;;;;;5031385;28;19967;-66
2022/09/09 08:12:37;;;;;;;;;;;;;;;;;;5032176;28;19933;-64
2022/09/09 08:15:04;;;;;;;;;;;;;;;;;;5013489;28;19925;-64
2022/09/09 08:17:32;;;;;;;;;;;;;;;;;;5012075;28;20444;-66
2022/09/09 08:20:04;;;;;;;;;;;;;;;;;;5011935;28;19932;-65
2022/09/09 08:22:31;;;;;;;;;;;;;;;;;;5011405;28;19925;-64
2022/09/09 08:24:58;;;;;;;;;;;;;;;;;;5012046;28;20013;-63
2022/09/09 08:27:25;;;;;;;;;;;;;;;;;;5012072;28;19932;-66
2022/09/09 08:29:51;;;;;;;;;;;;;;;;;;5011829;28;19968;-65
2022/09/09 08:32:18;;;;;;;;;;;;;;;;;;5011550;28;19925;-64
2022/09/09 08:34:47;;;;;;;;;;;;;;;;;;5011502;28;20013;-66
2022/09/09 08:37:14;;;;;;;;;;;;;;;;;;5019441;28;19925;-64
2022/09/09 08:39:41;;;;;;;;;;;;;;;;;;5032126;28;20296;-65
2022/09/09 08:42:22;;;;;;;;;;;;;;;;;;5031386;28;19929;-65
2022/09/09 08:45:06;;;;;;;;;;;;;;;;;;5031471;28;19925;-63
2022/09/09 08:47:38;;;;;;;;;;;;;;;;;;5030435;28;19925;-64
2022/09/09 08:50:19;;;;;;;;;;;;;;;;;;5031236;28;19933;-64
2022/09/09 08:52:50;;;;;;;;;;;;;;;;;;5030884;28;19956;-64
2022/09/09 08:55:22;;;;;;;;;;;;;;;;;;5031254;28;20432;-63
2022/09/09 08:57:51;;;;;;;;;;;;;;;;;;5031321;28;19925;-64
2022/09/09 09:00:18;;;;;;;;;;;;;;;;;;5031412;28;19929;-64
2022/09/09 09:02:49;;;;;;;;;;;;;;;;;;5015610;28;19933;-65
2022/09/09 09:05:20;;;;;;;;;;;;;;;;;;5011593;28;20020;-64
2022/09/09 09:07:57;;;;;;;;;;;;;;;;;;5011968;28;20391;-66
2022/09/09 09:10:31;;;;;;;;;;;;;;;;;;5011365;28;20390;-66
2022/09/09 09:12:59;;;;;;;;;;;;;;;;;;5011663;28;19926;-68
2022/09/09 09:15:28;;;;;;;;;;;;;;;;;;5011469;28;20286;-65
2022/09/09 09:17:54;;;;;;;;;;;;;;;;;;5012134;28;19926;-67
2022/09/09 09:20:26;;;;;;;;;;;;;;;;;;5012073;28;20391;-65
2022/09/09 09:22:56;;;;;;;;;;;;;;;;;;5012116;28;20260;-66
2022/09/09 09:25:23;;;;;;;;;;;;;;;;;;5010624;28;20729;-64
2022/09/09 09:27:54;;;;;;;;;;;;;;;;;;5010143;28;20346;-66
2022/09/09 09:30:22;;;;;;;;;;;;;;;;;;5010335;28;19933;-67
2022/09/09 09:32:53;;;;;;;;;;;;;;;;;;5010378;28;19925;-65
2022/09/09 09:35:20;;;;;;;;;;;;;;;;;;5015010;28;19925;-66
2022/09/09 09:37:48;;;;;;;;;;;;;;;;;;5014726;28;19930;-66
2022/09/09 09:40:16;;;;;;;;;;;;;;;;;;5014404;28;19925;-66
2022/09/09 09:42:49;;;;;;;;;;;;;;;;;;5014643;28;19971;-67
2022/09/09 09:45:19;;;;;;;;;;;;;;;;;;5014687;28;19930;-67
2022/09/09 09:47:46;;;;;;;;;;;;;;;;;;5017224;28;19937;-67
2022/09/09 09:50:20;;;;;;;;;;;;;;;;;;5034223;28;20388;-66
2022/09/09 09:52:56;;;;;;;;;;;;;;;;;;5034138;28;19925;-66
2022/09/09 09:55:49;;;;;;;;;;;;;;;;;;5034361;28;19959;-66
2022/09/09 09:58:16;;;;;;;;;;;;;;;;;;5030196;28;19979;-69
2022/09/09 10:00:48;;;;;;;;;;;;;;;;;;5020627;28;19925;-66
2022/09/09 10:03:21;;;;;;;;;;;;;;;;;;5015942;28;19932;-67
2022/09/09 10:05:47;;;;;;;;;;;;;;;;;;5014399;28;19929;-66
2022/09/09 10:08:17;;;;;;;;;;;;;;;;;;5014296;28;19929;-68
2022/09/09 10:10:48;;;;;;;;;;;;;;;;;;5014856;28;19933;-67
2022/09/09 10:13:20;;;;;;;;;;;;;;;;;;5013689;28;19972;-66
2022/09/09 10:15:54;;;;;;;;;;;;;;;;;;5018140;28;20353;-66
2022/09/09 10:18:27;;;;;;;;;;;;;;;;;;5034270;28;20389;-66
2022/09/09 10:21:00;;;;;;;;;;;;;;;;;;5033679;28;19931;-64
2022/09/09 10:23:40;;;;;;;;;;;;;;;;;;5034076;28;20279;-64
2022/09/09 10:26:14;;;;;;;;;;;;;;;;;;5033750;28;20028;-65
2022/09/09 10:28:54;;;;;;;;;;;;;;;;;;5032929;28;20294;-64
2022/09/09 10:31:25;;;;;;;;;;;;;;;;;;5033054;28;19971;-65
2022/09/09 10:33:57;;;;;;;;;;;;;;;;;;5033259;28;20373;-66
2022/09/09 10:36:25;;;;;;;;;;;;;;;;;;5023294;28;20417;-66
2022/09/09 10:38:58;;;;;;;;;;;;;;;;;;5019963;28;20000;-65
2022/09/09 10:41:32;;;;;;;;;;;;;;;;;;5018077;28;19929;-65
2022/09/09 10:44:16;;;;;;;;;;;;;;;;;;5023771;28;19952;-65
2022/09/09 10:46:58;;;;;;;;;;;;;;;;;;5018766;28;19988;-65
2022/09/09 10:49:30;;;;;;;;;;;;;;;;;;5025768;28;19936;-64
2022/09/09 10:52:01;;;;;;;;;;;;;;;;;;5020593;28;19979;-64
2022/09/09 10:54:38;;;;;;;;;;;;;;;;;;5017485;28;20132;-65
2022/09/09 10:57:08;;;;;;;;;;;;;;;;;;5021426;28;20394;-65
2022/09/09 10:59:39;;;;;;;;;;;;;;;;;;5022090;28;20020;-65
2022/09/09 11:02:12;;;;;;;;;;;;;;;;;;5018857;28;19932;-64
2022/09/09 11:04:41;;;;;;;;;;;;;;;;;;5022828;28;20153;-66
2022/09/09 11:07:09;;;;;;;;;;;;;;;;;;5019669;28;19925;-65
2022/09/09 11:09:41;;;;;;;;;;;;;;;;;;5023971;28;20358;-65
2022/09/09 11:12:20;;;;;;;;;;;;;;;;;;5020639;28;19925;-66
2022/09/09 11:14:51;;;;;;;;;;;;;;;;;;5021594;28;20390;-65
2022/09/09 11:17:26;;;;;;;;;;;;;;;;;;5023918;28;19990;-65
2022/09/09 11:20:04;;;;;;;;;;;;;;;;;;5018946;28;20421;-64
2022/09/09 11:22:38;;;;;;;;;;;;;;;;;;5018529;28;19926;-65
2022/09/09 11:25:09;;;;;;;;;;;;;;;;;;5019968;28;19932;-65
2022/09/09 11:27:41;;;;;;;;;;;;;;;;;;5022645;28;19972;-65
2022/09/09 11:30:18;;;;;;;;;;;;;;;;;;5021387;28;20445;-64
2022/09/09 11:33:00;;;;;;;;;;;;;;;;;;5020074;28;19925;-64
2022/09/09 11:35:32;;;;;;;;;;;;;;;;;;5024954;28;19925;-65
2022/09/09 11:38:07;;;;;;;;;;;;;;;;;;5024116;28;19972;-65
2022/09/09 11:40:36;;;;;;;;;;;;;;;;;;5019265;28;19926;-65
2022/09/09 11:43:05;;;;;;;;;;;;;;;;;;5022045;28;19925;-64
2022/09/09 11:45:33;;;;;;;;;;;;;;;;;;5029829;28;19933;-65
2022/09/09 11:48:00;;;;;;;;;;;;;;;;;;5028438;28;19940;-65
2022/09/09 11:50:32;;;;;;;;;;;;;;;;;;5032926;28;19949;-65
2022/09/09 11:53:22;;;;;;;;;;;;;;;;;;5033645;28;19971;-65
2022/09/09 11:56:01;;;;;;;;;;;;;;;;;;5028521;28;19925;-65
2022/09/09 11:58:32;;;;;;;;;;;;;;;;;;5024892;28;20020;-65
2022/09/09 12:00:59;;;;;;;;;;;;;;;;;;5017620;28;19944;-63
2022/09/09 12:03:35;;;;;;;;;;;;;;;;;;5018290;28;19947;-65
2022/09/09 12:06:10;;;;;;;;;;;;;;;;;;5016016;28;19943;-64
2022/09/09 12:08:37;;;;;;;;;;;;;;;;;;5012518;28;19932;-65
2022/09/09 12:11:06;;;;;;;;;;;;;;;;;;5020468;28;20349;-64
2022/09/09 12:13:33;;;;;;;;;;;;;;;;;;5016921;28;19964;-64
2022/09/09 12:16:02;;;;;;;;;;;;;;;;;;5013347;28;20274;-65
2022/09/09 12:18:33;;;;;;;;;;;;;;;;;;5016424;28;19940;-65
2022/09/09 12:21:03;;;;;;;;;;;;;;;;;;5015631;28;19941;-65
2022/09/09 12:23:37;;;;;;;;;;;;;;;;;;5020911;28;19967;-65
2022/09/09 12:26:14;;;;;;;;;;;;;;;;;;5026187;28;19925;-65
2022/09/09 12:28:45;;;;;;;;;;;;;;;;;;5021042;28;19925;-64
2022/09/09 12:31:17;;;;;;;;;;;;;;;;;;5013549;28;19949;-64
2022/09/09 12:36:13;;;;;;;;;;;;;;;;;;5050596;23;19925;-81
2022/09/09 12:38:40;;;;;;;;;;;;;;;;;;5034186;28;19925;-81
2022/09/09 12:41:07;;;;;;;;;;;;;;;;;;5035091;28;20290;-81
2022/09/09 12:43:34;;;;;;;;;;;;;;;;;;5031621;28;19932;-80
2022/09/09 12:46:03;;;;;;;;;;;;;;;;;;5025861;28;19925;-81
2022/09/09 12:48:32;;;;;;;;;;;;;;;;;;5036794;28;19931;-81
2022/09/09 12:50:59;;;;;;;;;;;;;;;;;;5036981;28;19925;-81
2022/09/09 12:53:28;;;;;;;;;;;;;;;;;;5035187;28;20403;-80
2022/09/09 12:55:56;;;;;;;;;;;;;;;;;;5034807;28;19925;-83
2022/09/09 12:58:24;;;;;;;;;;;;;;;;;;5034964;28;19940;-82
2022/09/09 13:00:52;;;;;;;;;;;;;;;;;;5033983;28;19964;-81
2022/09/09 13:03:20;;;;;;;;;;;;;;;;;;5015240;28;19952;-80
2022/09/09 13:05:47;;;;;;;;;;;;;;;;;;5014329;28;19926;-81
2022/09/09 13:08:14;;;;;;;;;;;;;;;;;;5014617;28;19937;-81
2022/09/09 13:10:44;;;;;;;;;;;;;;;;;;5014084;28;19932;-79
2022/09/09 13:13:14;;;;;;;;;;;;;;;;;;5016102;28;19932;-79
2022/09/09 13:15:48;;;;;;;;;;;;;;;;;;5015958;28;19964;-79
2022/09/09 13:18:17;;;;;;;;;;;;;;;;;;5016513;28;19929;-80
2022/09/09 13:20:47;;;;;;;;;;;;;;;;;;5019135;28;19972;-79
2022/09/09 13:23:13;;;;;;;;;;;;;;;;;;5024235;28;19925;-79
2022/09/09 13:25:39;;;;;;;;;;;;;;;;;;5024899;28;19930;-79
2022/09/09 13:28:20;;;;;;;;;;;;;;;;;;5020980;28;19925;-79
2022/09/09 13:30:58;;;;;;;;;;;;;;;;;;5022588;28;19925;-79
2022/09/09 13:33:30;;;;;;;;;;;;;;;;;;5028357;28;19963;-79
2022/09/09 13:35:57;;;;;;;;;;;;;;;;;;5033852;28;19925;-79
2022/09/09 13:38:24;;;;;;;;;;;;;;;;;;5034383;28;19925;-80
2022/09/09 13:41:01;;;;;;;;;;;;;;;;;;5025251;28;19926;-79
2022/09/09 13:43:28;;;;;;;;;;;;;;;;;;5024276;28;19929;-79
2022/09/09 13:45:56;;;;;;;;;;;;;;;;;;5031257;28;20322;-78
2022/09/09 13:48:22;;;;;;;;;;;;;;;;;;5029957;28;20430;-79
2022/09/09 13:50:55;;;;;;;;;;;;;;;;;;5030398;28;20302;-80
2022/09/09 13:53:22;;;;;;;;;;;;;;;;;;5031041;28;19933;-79
2022/09/09 13:55:48;;;;;;;;;;;;;;;;;;5026310;28;19975;-79
2022/09/09 13:58:16;;;;;;;;;;;;;;;;;;5027754;28;19943;-78
2022/09/09 14:00:44;;;;;;;;;;;;;;;;;;5028524;28;19937;-77
2022/09/09 14:03:10;;;;;;;;;;;;;;;;;;5028632;28;19936;-78
2022/09/09 14:05:38;;;;;;;;;;;;;;;;;;5028752;28;20032;-81
2022/09/09 14:08:06;;;;;;;;;;;;;;;;;;5030213;28;19996;-79
2022/09/09 14:10:35;;;;;;;;;;;;;;;;;;5024453;28;19925;-78
2022/09/09 14:13:02;;;;;;;;;;;;;;;;;;5029699;28;19933;-78
2022/09/09 14:15:28;;;;;;;;;;;;;;;;;;5031476;28;19933;-80
2022/09/09 14:17:54;;;;;;;;;;;;;;;;;;5029057;28;20093;-78
2022/09/09 14:20:21;;;;;;;;;;;;;;;;;;5032999;28;19925;-79
2022/09/09 14:22:48;;;;;;;;;;;;;;;;;;5035524;28;19934;-78
2022/09/09 14:25:16;;;;;;;;;;;;;;;;;;5035197;28;20374;-79
2022/09/09 14:27:43;;;;;;;;;;;;;;;;;;5035766;28;19932;-79
2022/09/09 14:30:10;;;;;;;;;;;;;;;;;;5034822;28;20272;-79
2022/09/09 14:32:36;;;;;;;;;;;;;;;;;;5034778;28;19925;-78
2022/09/09 14:35:03;;;;;;;;;;;;;;;;;;5033858;28;20303;-78
2022/09/09 14:37:30;;;;;;;;;;;;;;;;;;5042400;28;19929;-79
2022/09/09 14:39:57;;;;;;;;;;;;;;;;;;5034155;28;20006;-79
2022/09/09 14:42:25;;;;;;;;;;;;;;;;;;5033046;28;19929;-78
2022/09/09 14:44:52;;;;;;;;;;;;;;;;;;5035489;28;19925;-80
2022/09/09 14:47:18;;;;;;;;;;;;;;;;;;5039296;28;20035;-78
2022/09/09 14:49:45;;;;;;;;;;;;;;;;;;5038872;28;19944;-78
2022/09/09 14:52:12;;;;;;;;;;;;;;;;;;5038668;28;19925;-79
2022/09/09 14:54:38;;;;;;;;;;;;;;;;;;5039761;28;20478;-79
2022/09/09 14:57:05;;;;;;;;;;;;;;;;;;5039551;28;19957;-77
2022/09/09 14:59:34;;;;;;;;;;;;;;;;;;5035922;28;20453;-76
2022/09/09 15:02:03;;;;;;;;;;;;;;;;;;5037740;28;19951;-80
2022/09/09 15:04:30;;;;;;;;;;;;;;;;;;5038272;28;20000;-79
2022/09/09 15:06:56;;;;;;;;;;;;;;;;;;5038668;28;19951;-79
2022/09/09 15:09:23;;;;;;;;;;;;;;;;;;5038603;28;19925;-79
2022/09/09 15:11:50;;;;;;;;;;;;;;;;;;5039803;28;19935;-81
2022/09/09 15:14:17;;;;;;;;;;;;;;;;;;5039784;28;19925;-81
2022/09/09 15:16:44;;;;;;;;;;;;;;;;;;5037351;28;19925;-80
2022/09/09 15:19:11;;;;;;;;;;;;;;;;;;5038420;28;20478;-81
2022/09/09 15:21:38;;;;;;;;;;;;;;;;;;5037807;28;19925;-81
2022/09/09 15:24:07;;;;;;;;;;;;;;;;;;5037510;28;19925;-79
2022/09/09 15:26:33;;;;;;;;;;;;;;;;;;5037341;28;19947;-79
2022/09/09 15:29:00;;;;;;;;;;;;;;;;;;5038729;28;19935;-81
2022/09/09 15:31:28;;;;;;;;;;;;;;;;;;5038132;28;19931;-79
2022/09/09 15:34:00;;;;;;;;;;;;;;;;;;5038960;28;19960;-78
2022/09/09 15:36:28;;;;;;;;;;;;;;;;;;5022209;28;19936;-80
2022/09/09 15:38:55;;;;;;;;;;;;;;;;;;5017897;28;19926;-77
2022/09/09 15:41:22;;;;;;;;;;;;;;;;;;5017840;28;20470;-79
2022/09/09 15:43:49;;;;;;;;;;;;;;;;;;5014176;28;19972;-76
2022/09/09 15:46:26;;;;;;;;;;;;;;;;;;5015250;28;19932;-77
2022/09/09 15:48:52;;;;;;;;;;;;;;;;;;5010661;28;19925;-78
2022/09/09 15:51:20;;;;;;;;;;;;;;;;;;5007126;28;19925;-79
2022/09/09 15:53:47;;;;;;;;;;;;;;;;;;5011757;28;19968;-78
2022/09/09 15:56:13;;;;;;;;;;;;;;;;;;5006199;28;20024;-79
2022/09/09 15:58:40;;;;;;;;;;;;;;;;;;4998523;28;19936;-79
2022/09/09 16:01:07;;;;;;;;;;;;;;;;;;4998385;28;20404;-78
2022/09/09 16:03:34;;;;;;;;;;;;;;;;;;5016748;28;19972;-78
2022/09/09 16:06:01;;;;;;;;;;;;;;;;;;5015762;28;19969;-78
2022/09/09 16:08:33;;;;;;;;;;;;;;;;;;5015534;28;20000;-80
2022/09/09 16:11:05;;;;;;;;;;;;;;;;;;5015019;28;19935;-78
2022/09/09 16:13:33;;;;;;;;;;;;;;;;;;5013239;28;20336;-78
2022/09/09 16:16:00;;;;;;;;;;;;;;;;;;5013148;28;20008;-79
2022/09/09 16:18:26;;;;;;;;;;;;;;;;;;5013786;28;19957;-78
2022/09/09 16:20:54;;;;;;;;;;;;;;;;;;5013031;28;19973;-79
2022/09/09 16:23:20;;;;;;;;;;;;;;;;;;5009824;28;20016;-78
2022/09/09 16:25:55;;;;;;;;;;;;;;;;;;4998241;28;19932;-81
2022/09/09 16:28:22;;;;;;;;;;;;;;;;;;4997794;28;19985;-82
2022/09/09 16:30:48;;;;;;;;;;;;;;;;;;4996788;28;19951;-78
2022/09/09 16:33:15;;;;;;;;;;;;;;;;;;4996100;28;19936;-78
2022/09/09 16:35:42;;;;;;;;;;;;;;;;;;5010064;28;20610;-78
2022/09/09 16:38:09;;;;;;;;;;;;;;;;;;5028306;28;19976;-79
2022/09/09 16:40:36;;;;;;;;;;;;;;;;;;5034005;28;19931;-80
2022/09/09 16:43:04;;;;;;;;;;;;;;;;;;5034701;28;20516;-78
2022/09/09 16:45:32;;;;;;;;;;;;;;;;;;5034091;28;19929;-79
2022/09/09 16:47:58;;;;;;;;;;;;;;;;;;5033600;28;20388;-78
2022/09/09 16:50:25;;;;;;;;;;;;;;;;;;5033995;28;19925;-77
2022/09/09 16:52:52;;;;;;;;;;;;;;;;;;5036226;28;19929;-78
2022/09/09 16:55:20;;;;;;;;;;;;;;;;;;5035600;28;20020;-78
2022/09/09 16:57:47;;;;;;;;;;;;;;;;;;5037477;28;19925;-79
2022/09/09 17:00:16;;;;;;;;;;;;;;;;;;5035982;28;19925;-76